Time;durP1;ratioP1;P1;durP2;ratioP2;P2;SDS_P1;SDS_P2;PMS_P1;PMS_P2;Temp;Humidity;BMP_temperature;BMP_pressure;BME280_temperature;BME280_humidity;BME280_pressure;Samples;Min_cycle;Max_cycle;Signal;HPM_P1;HPM_P2
2023/06/12 00:02:09;;;;;;;10.40;7.00;;;;;;;23.45;38.48;101404.50;4986912;28;20023;-85
2023/06/12 00:04:35;;;;;;;7.10;6.40;;;;;;;23.43;38.80;101395.72;4987449;28;20120;-85
2023/06/12 00:07:01;;;;;;;8.30;6.63;;;;;;;23.29;38.66;101399.59;4986392;28;20061;-84
2023/06/12 00:09:28;;;;;;;13.35;7.25;;;;;;;23.27;38.84;101396.19;4983794;28;20132;-84
2023/06/12 00:11:53;;;;;;;9.38;6.13;;;;;;;23.33;38.53;101398.34;4986458;28;20026;-84
2023/06/12 00:14:18;;;;;;;8.15;6.30;;;;;;;23.30;38.62;101395.91;4984464;28;20027;-84
2023/06/12 00:16:44;;;;;;;8.05;6.70;;;;;;;23.24;38.81;101392.88;4986193;28;20026;-84
2023/06/12 00:19:09;;;;;;;12.27;6.88;;;;;;;23.22;38.99;101394.81;4988486;28;20396;-84
2023/06/12 00:21:35;;;;;;;10.27;6.95;;;;;;;23.23;39.12;101402.81;4985344;28;20034;-84
2023/06/12 00:24:00;;;;;;;10.70;6.47;;;;;;;23.10;38.64;101396.72;4987885;28;20062;-84
2023/06/12 00:26:26;;;;;;;7.30;6.47;;;;;;;23.09;38.57;101400.44;4988089;28;20042;-84
2023/06/12 00:28:51;;;;;;;8.80;6.63;;;;;;;22.98;38.38;101401.31;4988175;28;20510;-84
2023/06/12 00:31:16;;;;;;;11.90;6.78;;;;;;;22.87;39.25;101399.47;4987530;28;20031;-84
2023/06/12 00:33:42;;;;;;;7.00;6.38;;;;;;;22.87;39.73;101396.78;4985572;28;20389;-84
2023/06/12 00:36:07;;;;;;;7.63;6.40;;;;;;;22.70;39.77;101404.53;4974009;28;20045;-83
2023/06/12 00:38:34;;;;;;;9.23;6.35;;;;;;;22.72;39.14;101402.59;4988238;28;20512;-84
2023/06/12 00:41:00;;;;;;;8.75;6.47;;;;;;;22.77;39.40;101403.06;4978164;28;20030;-83
2023/06/12 00:43:25;;;;;;;7.05;6.43;;;;;;;22.76;39.12;101404.91;4986157;28;20087;-83
2023/06/12 00:45:50;;;;;;;8.70;6.68;;;;;;;22.61;40.01;101398.06;4985341;28;20049;-84
2023/06/12 00:48:17;;;;;;;12.10;6.93;;;;;;;22.51;40.40;101397.97;4986744;28;20474;-84
2023/06/12 00:50:45;;;;;;;7.03;6.30;;;;;;;22.56;40.05;101397.59;4988706;28;20332;-84
2023/06/12 00:53:11;;;;;;;7.35;6.43;;;;;;;22.50;40.41;101398.09;4985344;28;20034;-84
2023/06/12 00:55:36;;;;;;;8.65;6.68;;;;;;;22.46;41.00;101394.78;4985706;28;20026;-84
2023/06/12 00:58:02;;;;;;;7.43;6.63;;;;;;;22.48;40.43;101395.53;4989917;28;20037;-83
2023/06/12 01:00:28;;;;;;;8.65;6.60;;;;;;;22.50;40.22;101390.03;4985949;28;20026;-84
2023/06/12 01:02:55;;;;;;;8.85;6.97;;;;;;;22.44;40.43;101396.78;4985245;28;20026;-84
2023/06/12 01:05:28;;;;;;;8.65;6.90;;;;;;;22.41;40.71;101397.88;4983377;28;20050;-84
2023/06/12 01:08:18;;;;;;;8.32;6.68;;;;;;;22.40;40.21;101389.91;4989044;28;20062;-84
2023/06/12 01:10:57;;;;;;;7.10;6.40;;;;;;;22.24;40.74;101387.59;4988758;28;20478;-84
2023/06/12 01:13:23;;;;;;;7.53;6.43;;;;;;;22.11;41.39;101392.25;4985386;28;20770;-83
2023/06/12 01:15:49;;;;;;;8.43;6.78;;;;;;;22.07;41.31;101393.47;4981934;28;20034;-84
2023/06/12 01:18:15;;;;;;;7.90;6.35;;;;;;;22.05;41.68;101395.41;4985115;28;20034;-84
2023/06/12 01:20:42;;;;;;;8.30;6.55;;;;;;;21.98;41.68;101391.50;4987022;28;20458;-83
2023/06/12 01:23:36;;;;;;;7.55;6.78;;;;;;;21.98;40.73;101397.75;4968057;28;20490;-83
2023/06/12 01:26:18;;;;;;;8.05;7.22;;;;;;;21.85;41.40;101400.53;4982942;28;20069;-84
2023/06/12 01:29:21;;;;;;;8.82;6.85;;;;;;;21.90;40.92;101395.63;4984696;28;20037;-84
2023/06/12 01:32:12;;;;;;;9.02;7.07;;;;;;;21.80;41.33;101396.50;4983454;28;20033;-83
2023/06/12 01:34:50;;;;;;;8.07;7.05;;;;;;;21.75;41.33;101399.56;4982380;28;20022;-84
2023/06/12 01:37:34;;;;;;;9.40;6.78;;;;;;;21.80;41.25;101401.88;4989024;28;20025;-84
2023/06/12 01:40:02;;;;;;;8.07;6.85;;;;;;;21.76;41.90;101398.56;4986266;28;20033;-83
2023/06/12 01:42:29;;;;;;;7.53;6.80;;;;;;;21.65;41.91;101406.63;4968278;28;20022;-83
2023/06/12 01:44:55;;;;;;;7.90;6.93;;;;;;;21.53;43.32;101405.72;4985067;28;20014;-84
2023/06/12 01:47:21;;;;;;;8.40;6.88;;;;;;;21.49;42.95;101406.94;4985614;28;20064;-83
2023/06/12 01:49:47;;;;;;;9.13;7.10;;;;;;;21.46;42.41;101398.28;4987592;28;20034;-83
2023/06/12 01:52:13;;;;;;;8.30;7.35;;;;;;;21.33;42.79;101401.03;4981171;28;20375;-84
2023/06/12 01:54:38;;;;;;;8.30;7.15;;;;;;;21.37;42.91;101400.69;4979044;28;20482;-84
2023/06/12 01:57:05;;;;;;;11.32;7.28;;;;;;;21.35;42.75;101396.38;4986525;28;20112;-84
2023/06/12 01:59:32;;;;;;;9.15;7.20;;;;;;;21.36;42.44;101407.06;4989022;28;20053;-83
2023/06/12 02:01:57;;;;;;;7.55;6.85;;;;;;;21.34;42.87;101398.22;4989325;28;20608;-84
2023/06/12 02:04:23;;;;;;;8.60;7.30;;;;;;;21.35;43.17;101396.38;4986920;28;20105;-84
2023/06/12 02:06:48;;;;;;;11.02;7.60;;;;;;;21.28;43.17;101400.50;4983942;28;20042;-83
2023/06/12 02:09:15;;;;;;;9.40;7.35;;;;;;;21.24;43.18;101396.34;4983848;28;20099;-84
2023/06/12 02:11:42;;;;;;;8.82;7.20;;;;;;;21.16;44.16;101396.91;4987343;28;20110;-83
2023/06/12 02:14:07;;;;;;;8.38;7.50;;;;;;;21.19;43.48;101406.59;4972669;28;20025;-84
2023/06/12 02:16:32;;;;;;;8.52;7.55;;;;;;;21.22;44.07;101409.06;4988661;28;20038;-84
2023/06/12 02:18:58;;;;;;;11.15;7.32;;;;;;;21.18;44.05;101394.13;4983039;28;20092;-84
2023/06/12 02:21:23;;;;;;;9.43;7.60;;;;;;;20.99;44.44;101402.72;4988650;28;20113;-83
2023/06/12 02:23:48;;;;;;;10.85;7.57;;;;;;;20.91;44.97;101397.91;4978898;28;20038;-84
2023/06/12 02:26:14;;;;;;;8.68;7.72;;;;;;;20.62;45.45;101400.06;4988019;28;20027;-84
2023/06/12 02:28:42;;;;;;;8.30;7.20;;;;;;;20.61;45.81;101398.31;4986959;28;20664;-84
2023/06/12 02:31:07;;;;;;;10.50;7.00;;;;;;;20.57;45.20;101394.19;4985420;28;20054;-84
2023/06/12 02:33:33;;;;;;;9.25;7.35;;;;;;;20.56;45.94;101389.75;4988620;28;20069;-84
2023/06/12 02:35:58;;;;;;;7.97;7.07;;;;;;;20.63;45.63;101399.94;4990258;28;20323;-84
2023/06/12 02:38:23;;;;;;;11.73;8.25;;;;;;;20.61;45.59;101388.47;4991787;28;20072;-83
2023/06/12 02:40:49;;;;;;;13.10;7.13;;;;;;;20.59;45.77;101387.69;4989675;28;20493;-84
2023/06/12 02:43:14;;;;;;;9.77;7.55;;;;;;;20.58;45.68;101393.19;4983192;28;20023;-83
2023/06/12 02:45:39;;;;;;;10.27;8.30;;;;;;;20.58;45.42;101391.38;4982122;28;20043;-83
2023/06/12 02:48:05;;;;;;;9.70;7.68;;;;;;;20.40;46.49;101392.69;4979504;28;20026;-83
2023/06/12 02:50:30;;;;;;;10.25;7.72;;;;;;;20.45;46.32;101395.03;4984260;28;20517;-83
2023/06/12 02:52:55;;;;;;;10.73;8.13;;;;;;;20.43;46.03;101388.94;4981901;28;20120;-83
2023/06/12 02:55:21;;;;;;;9.75;7.82;;;;;;;20.54;45.69;101389.03;4984917;28;20037;-83
2023/06/12 02:57:46;;;;;;;11.30;8.00;;;;;;;20.43;46.32;101381.72;4989683;28;20018;-83
2023/06/12 03:00:15;;;;;;;8.75;7.35;;;;;;;20.19;46.94;101383.47;4985038;28;20027;-84
2023/06/12 03:02:44;;;;;;;8.73;7.72;;;;;;;20.18;47.02;101385.31;4986651;28;20026;-84
2023/06/12 03:05:14;;;;;;;9.43;8.00;;;;;;;20.19;47.12;101392.41;4987931;28;20104;-83
2023/06/12 03:07:41;;;;;;;8.93;7.95;;;;;;;20.04;47.46;101382.75;4987129;28;20034;-84
2023/06/12 03:10:08;;;;;;;10.88;8.00;;;;;;;19.99;47.94;101388.44;4980991;28;20128;-84
2023/06/12 03:12:33;;;;;;;11.80;8.40;;;;;;;20.01;47.85;101389.22;4984445;28;20037;-83
2023/06/12 03:15:00;;;;;;;9.60;8.55;;;;;;;19.96;47.70;101382.44;4986054;28;20038;-83
2023/06/12 03:17:25;;;;;;;11.63;8.88;;;;;;;19.96;47.58;101386.00;4972327;28;20014;-84
2023/06/12 03:19:50;;;;;;;8.90;8.00;;;;;;;19.93;47.85;101391.56;4991685;28;20121;-85
2023/06/12 03:22:15;;;;;;;9.40;7.95;;;;;;;19.90;47.59;101389.09;4988317;28;20477;-83
2023/06/12 03:24:41;;;;;;;9.70;8.18;;;;;;;19.88;47.84;101383.00;4984055;28;20022;-83
2023/06/12 03:27:08;;;;;;;9.13;8.15;;;;;;;19.84;47.29;101393.06;4985248;28;20022;-84
2023/06/12 03:29:33;;;;;;;10.95;8.48;;;;;;;19.88;47.05;101393.72;4988304;28;20592;-83
2023/06/12 03:31:59;;;;;;;11.27;8.95;;;;;;;19.81;47.61;101400.47;4990360;28;20108;-83
2023/06/12 03:34:24;;;;;;;13.75;9.45;;;;;;;19.47;49.02;101399.25;4987543;28;20026;-83
2023/06/12 03:36:49;;;;;;;11.07;8.68;;;;;;;19.53;48.41;101401.50;4986545;28;20386;-84
2023/06/12 03:39:15;;;;;;;11.20;8.68;;;;;;;19.49;48.89;101405.34;4989709;28;20076;-83
2023/06/12 03:41:56;;;;;;;13.23;7.88;;;;;;;19.53;48.50;101397.00;4986725;28;20452;-83
2023/06/12 03:44:22;;;;;;;11.80;8.75;;;;;;;19.62;48.57;101408.94;4970502;28;20045;-84
2023/06/12 03:46:47;;;;;;;10.63;8.38;;;;;;;19.67;48.62;101400.59;4988125;28;20023;-83
2023/06/12 03:49:12;;;;;;;9.80;7.85;;;;;;;19.67;49.32;101412.16;4985882;28;20388;-84
2023/06/12 03:51:37;;;;;;;9.63;8.57;;;;;;;19.64;49.60;101412.41;4984570;28;20041;-84
2023/06/12 03:54:03;;;;;;;11.27;8.02;;;;;;;19.66;49.03;101418.50;4986741;28;20034;-84
2023/06/12 03:56:28;;;;;;;11.23;8.07;;;;;;;19.63;48.89;101416.03;4987103;28;20030;-83
2023/06/12 03:58:53;;;;;;;11.23;8.55;;;;;;;19.71;48.73;101416.34;4989461;28;20029;-84
2023/06/12 04:01:19;;;;;;;10.48;8.50;;;;;;;19.69;48.76;101415.63;4985082;28;20034;-84
2023/06/12 04:03:45;;;;;;;10.23;9.02;;;;;;;19.72;48.62;101420.75;4966877;28;20401;-83
2023/06/12 04:06:11;;;;;;;11.38;8.27;;;;;;;19.77;48.83;101429.38;4981987;28;20520;-84
2023/06/12 04:08:37;;;;;;;12.18;7.95;;;;;;;19.74;48.49;101429.56;4987665;28;20030;-84
2023/06/12 04:11:04;;;;;;;11.02;8.98;;;;;;;19.79;48.62;101427.44;5001778;28;20026;-83
2023/06/12 04:13:29;;;;;;;10.32;8.27;;;;;;;19.76;48.76;101424.09;4987735;28;20027;-84
2023/06/12 04:15:57;;;;;;;10.18;9.00;;;;;;;19.74;49.01;101429.56;4989378;28;20087;-83
2023/06/12 04:18:23;;;;;;;10.82;8.35;;;;;;;19.80;48.86;101430.97;4985640;28;20060;-83
2023/06/12 04:20:49;;;;;;;10.73;9.25;;;;;;;19.88;48.82;101440.22;4991992;28;20517;-83
2023/06/12 04:23:16;;;;;;;13.20;9.18;;;;;;;19.92;48.91;101437.31;4968996;28;20057;-83
2023/06/12 04:25:42;;;;;;;13.15;9.10;;;;;;;19.95;49.29;101431.72;4978180;28;20031;-83
2023/06/12 04:28:13;;;;;;;12.48;9.10;;;;;;;19.95;49.79;101437.94;4987033;28;20045;-84
2023/06/12 04:30:38;;;;;;;11.80;8.77;;;;;;;19.82;50.05;101437.97;4987275;28;20482;-83
2023/06/12 04:33:03;;;;;;;10.68;8.80;;;;;;;19.89;50.04;101427.66;4988557;28;20029;-83
2023/06/12 04:35:29;;;;;;;10.25;9.15;;;;;;;19.86;50.35;101434.09;4984521;28;20476;-83
2023/06/12 04:37:55;;;;;;;9.48;8.35;;;;;;;19.89;50.01;101427.66;4983616;28;20035;-83
2023/06/12 04:40:22;;;;;;;11.20;8.68;;;;;;;19.91;50.11;101424.84;4992763;28;20080;-83
2023/06/12 04:42:47;;;;;;;13.85;8.52;;;;;;;19.95;50.61;101427.19;4987614;28;20120;-83
2023/06/12 04:45:13;;;;;;;11.02;9.45;;;;;;;19.90;50.82;101428.50;4968953;28;20037;-83
2023/06/12 04:47:39;;;;;;;13.25;10.02;;;;;;;19.85;51.48;101421.63;4988592;28;20054;-84
2023/06/12 04:50:09;;;;;;;11.90;10.13;;;;;;;19.94;50.34;101425.50;4986461;28;20524;-83
2023/06/12 04:52:34;;;;;;;12.05;9.65;;;;;;;19.99;50.18;101431.41;4986867;28;20060;-84
2023/06/12 04:54:59;;;;;;;14.55;9.90;;;;;;;20.03;50.13;101424.84;4970249;28;20458;-84
2023/06/12 04:57:27;;;;;;;12.57;9.80;;;;;;;20.13;50.51;101433.09;4976166;28;20026;-84
2023/06/12 04:59:52;;;;;;;14.77;10.13;;;;;;;20.23;49.69;101434.16;4966262;28;20112;-84
2023/06/12 05:02:18;;;;;;;14.20;10.32;;;;;;;20.24;50.21;101430.53;4987085;28;20120;-84
2023/06/12 05:04:43;;;;;;;13.45;11.10;;;;;;;20.24;49.99;101443.09;4982925;28;20030;-84
2023/06/12 05:07:16;;;;;;;14.52;11.15;;;;;;;20.20;50.56;101445.13;4964608;28;20026;-84
2023/06/12 05:09:43;;;;;;;12.93;11.45;;;;;;;20.26;50.25;101431.28;4984473;28;20034;-84
2023/06/12 05:12:08;;;;;;;18.15;12.13;;;;;;;20.28;50.87;101444.56;4989927;28;20385;-85
2023/06/12 05:14:34;;;;;;;15.20;11.27;;;;;;;20.43;49.68;101439.97;4986294;28;20029;-84
2023/06/12 05:17:00;;;;;;;14.43;11.50;;;;;;;20.47;49.77;101438.75;4986536;28;20053;-84
2023/06/12 05:19:26;;;;;;;13.02;11.50;;;;;;;20.56;49.60;101443.47;4984605;28;20022;-84
2023/06/12 05:21:52;;;;;;;18.67;12.23;;;;;;;20.52;49.50;101431.28;4991071;28;20030;-83
2023/06/12 05:24:17;;;;;;;15.90;12.45;;;;;;;20.55;50.41;101442.63;4984004;28;20018;-84
2023/06/12 05:26:42;;;;;;;16.33;11.60;;;;;;;20.65;49.27;101440.13;4974064;28;20036;-84
2023/06/12 05:29:08;;;;;;;13.43;10.50;;;;;;;20.68;49.85;101439.91;4983993;28;20029;-83
2023/06/12 05:31:33;;;;;;;12.43;11.13;;;;;;;20.75;50.84;101443.88;4967429;28;20473;-85
2023/06/12 05:33:58;;;;;;;16.17;11.25;;;;;;;20.79;50.19;101441.81;4981927;28;20261;-83
2023/06/12 05:36:24;;;;;;;15.75;11.02;;;;;;;20.85;49.15;101436.84;4966119;28;20022;-84
2023/06/12 05:38:49;;;;;;;13.07;9.90;;;;;;;20.95;48.84;101439.72;4984451;28;20034;-84
2023/06/12 05:41:15;;;;;;;13.73;10.27;;;;;;;21.02;49.28;101435.59;4989334;28;20041;-83
2023/06/12 05:43:41;;;;;;;17.35;10.25;;;;;;;21.09;49.23;101438.69;4984128;28;20049;-84
2023/06/12 05:46:06;;;;;;;12.63;9.70;;;;;;;21.15;48.17;101427.47;4986584;28;20065;-83
2023/06/12 05:48:31;;;;;;;15.07;10.48;;;;;;;21.20;49.11;101425.28;4984146;28;20026;-84
2023/06/12 05:50:57;;;;;;;13.60;10.02;;;;;;;21.27;48.74;101431.06;4987881;28;20508;-84
2023/06/12 05:53:22;;;;;;;17.05;9.75;;;;;;;21.33;49.72;101427.94;4982962;28;20034;-84
2023/06/12 05:55:47;;;;;;;15.10;9.80;;;;;;;21.38;48.97;101429.28;4970886;28;20535;-84
2023/06/12 05:58:13;;;;;;;10.73;9.45;;;;;;;21.42;47.95;101426.38;4990808;28;20033;-84
2023/06/12 06:00:40;;;;;;;14.88;9.50;;;;;;;21.49;48.30;101439.22;4968615;28;20034;-84
2023/06/12 06:03:06;;;;;;;13.60;9.43;;;;;;;21.56;47.24;101435.09;4983503;28;20065;-84
2023/06/12 06:05:32;;;;;;;12.82;8.32;;;;;;;21.65;47.21;101429.00;4982108;28;20050;-83
2023/06/12 06:07:57;;;;;;;12.60;9.13;;;;;;;21.71;46.47;101426.81;4966824;28;20474;-84
2023/06/12 06:10:22;;;;;;;11.32;9.20;;;;;;;21.80;46.45;101432.34;4980666;28;20030;-84
2023/06/12 06:12:48;;;;;;;16.05;9.73;;;;;;;21.84;47.16;101430.28;4990503;28;20644;-84
2023/06/12 06:15:13;;;;;;;13.88;9.85;;;;;;;21.89;47.31;101439.69;4983313;28;20054;-83
2023/06/12 06:17:38;;;;;;;13.88;9.43;;;;;;;22.16;46.25;101435.84;4988118;28;20030;-84
2023/06/12 06:20:05;;;;;;;12.40;9.10;;;;;;;22.40;45.08;101430.31;4982537;28;20041;-84
2023/06/12 06:22:31;;;;;;;15.93;9.35;;;;;;;22.58;44.32;101436.06;4986732;28;20096;-84
2023/06/12 06:24:57;;;;;;;12.57;8.43;;;;;;;22.69;44.86;101432.50;4968139;28;20117;-84
2023/06/12 06:27:22;;;;;;;12.85;8.52;;;;;;;22.91;44.22;101437.88;4964418;28;20027;-84
2023/06/12 06:29:47;;;;;;;19.73;8.65;;;;;;;23.00;43.87;101442.50;4983280;28;20062;-84
2023/06/12 06:32:13;;;;;;;11.88;8.80;;;;;;;23.20;44.28;101439.97;4986241;28;20023;-84
2023/06/12 06:34:38;;;;;;;11.10;7.80;;;;;;;23.42;45.31;101448.84;4984976;28;20023;-83
2023/06/12 06:37:03;;;;;;;10.82;8.13;;;;;;;23.48;43.75;101435.81;4988147;28;20277;-83
2023/06/12 06:39:29;;;;;;;11.65;8.23;;;;;;;23.67;43.13;101446.75;4964826;28;20497;-83
2023/06/12 06:41:54;;;;;;;10.05;8.13;;;;;;;23.72;42.82;101444.53;4986549;28;20475;-84
2023/06/12 06:44:19;;;;;;;11.32;8.38;;;;;;;23.61;43.01;101441.88;4990631;28;20018;-83
2023/06/12 06:46:45;;;;;;;8.90;7.68;;;;;;;23.74;43.15;101439.00;4983111;28;20585;-84
2023/06/12 06:49:10;;;;;;;8.40;7.45;;;;;;;23.83;44.11;101438.22;4985061;28;20033;-83
2023/06/12 06:51:36;;;;;;;13.27;7.43;;;;;;;23.92;42.98;101442.78;4986306;28;20070;-84
2023/06/12 06:54:01;;;;;;;10.05;7.15;;;;;;;24.09;42.19;101441.31;4985976;28;20030;-83
2023/06/12 06:56:27;;;;;;;10.90;7.85;;;;;;;24.00;43.35;101445.69;4989762;28;20033;-83
2023/06/12 06:58:52;;;;;;;9.38;7.00;;;;;;;24.16;42.69;101431.69;4988971;28;20053;-83
2023/06/12 07:01:17;;;;;;;9.15;6.95;;;;;;;24.39;43.06;101435.97;4973305;28;20031;-83
2023/06/12 07:03:43;;;;;;;10.88;7.32;;;;;;;24.49;41.33;101436.00;4970114;28;20027;-83
2023/06/12 07:06:08;;;;;;;10.98;7.60;;;;;;;24.92;39.83;101435.66;4968026;28;20047;-83
2023/06/12 07:08:33;;;;;;;11.80;6.65;;;;;;;25.06;40.15;101434.38;4985657;28;20040;-84
2023/06/12 07:10:59;;;;;;;9.88;6.75;;;;;;;24.82;40.77;101431.22;4992092;28;20029;-83
2023/06/12 07:13:24;;;;;;;9.48;6.75;;;;;;;25.01;38.10;101431.25;4987620;28;20081;-83
2023/06/12 07:15:51;;;;;;;6.53;5.93;;;;;;;25.22;38.42;101424.88;4988591;28;20034;-84
2023/06/12 07:18:16;;;;;;;8.52;6.28;;;;;;;25.30;37.64;101428.59;4979974;28;20536;-84
2023/06/12 07:20:42;;;;;;;10.75;6.63;;;;;;;25.30;38.98;101427.72;4993443;28;20030;-84
2023/06/12 07:23:07;;;;;;;9.80;6.60;;;;;;;25.39;39.28;101429.56;4988963;28;20018;-82
2023/06/12 07:25:33;;;;;;;7.47;6.68;;;;;;;25.52;40.87;101424.72;4989739;28;20034;-84
2023/06/12 07:27:58;;;;;;;12.20;7.28;;;;;;;25.83;36.70;101427.25;4983242;28;20142;-84
2023/06/12 07:30:23;;;;;;;9.18;6.88;;;;;;;26.22;37.91;101425.28;4987924;28;20033;-83
2023/06/12 07:32:49;;;;;;;9.25;6.30;;;;;;;26.76;36.00;101417.28;4974265;28;20116;-83
2023/06/12 07:35:15;;;;;;;10.02;6.25;;;;;;;27.08;36.29;101427.63;4986555;28;20552;-84
2023/06/12 07:37:42;;;;;;;7.78;6.75;;;;;;;27.40;35.28;101430.69;4984820;28;20058;-82
2023/06/12 07:40:08;;;;;;;14.13;6.65;;;;;;;27.71;35.06;101427.53;4989239;28;20497;-84
2023/06/12 07:42:34;;;;;;;11.63;7.22;;;;;;;27.99;34.41;101428.25;4990998;28;20548;-83
2023/06/12 07:44:59;;;;;;;10.52;6.32;;;;;;;28.68;32.68;101423.66;4984260;28;20030;-83
2023/06/12 07:47:24;;;;;;;10.38;5.85;;;;;;;29.51;32.38;101417.31;4991801;28;20027;-83
2023/06/12 07:49:50;;;;;;;8.32;6.47;;;;;;;29.84;30.63;101413.53;4973364;28;20046;-84
2023/06/12 07:52:15;;;;;;;9.45;7.40;;;;;;;30.61;29.01;101412.94;4990124;28;20018;-84
2023/06/12 07:54:42;;;;;;;9.93;6.15;;;;;;;30.69;29.15;101424.66;4986574;28;20394;-84
2023/06/12 07:57:10;;;;;;;7.00;6.30;;;;;;;30.95;29.40;101421.63;4989924;28;20026;-81
2023/06/12 07:59:35;;;;;;;9.80;7.07;;;;;;;31.11;28.00;101412.50;4955755;28;20371;-81
2023/06/12 08:02:01;;;;;;;8.70;6.10;;;;;;;31.17;28.38;101421.81;4985033;28;20034;-81
2023/06/12 08:04:29;;;;;;;8.10;6.43;;;;;;;31.24;29.20;101422.78;4984089;28;20286;-81
2023/06/12 08:06:54;;;;;;;14.63;6.65;;;;;;;31.25;28.84;101419.88;4981069;28;20031;-81
2023/06/12 08:09:20;;;;;;;9.48;6.20;;;;;;;31.40;29.19;101421.84;4983375;28;20093;-82
2023/06/12 08:11:45;;;;;;;12.35;6.22;;;;;;;31.87;28.11;101418.84;4985372;28;20104;-82
2023/06/12 08:14:11;;;;;;;8.15;6.38;;;;;;;32.41;27.32;101417.72;4989743;28;20026;-81
2023/06/12 08:16:37;;;;;;;6.72;6.03;;;;;;;33.20;26.29;101415.03;4987092;28;20327;-84
2023/06/12 08:19:02;;;;;;;9.48;5.70;;;;;;;33.63;25.23;101413.13;4983347;28;20493;-84
2023/06/12 08:21:27;;;;;;;8.73;6.22;;;;;;;34.08;24.22;101416.41;4985778;28;20052;-84
2023/06/12 08:23:53;;;;;;;8.95;6.05;;;;;;;34.40;24.40;101417.63;4985748;28;20146;-85
2023/06/12 08:26:18;;;;;;;7.07;6.38;;;;;;;34.78;22.79;101414.41;4991736;28;20062;-84
2023/06/12 08:28:49;;;;;;;9.55;6.55;;;;;;;34.54;23.97;101413.06;4985355;28;20474;-85
2023/06/12 08:31:15;;;;;;;8.68;5.88;;;;;;;34.50;23.28;101412.63;4989489;28;20037;-85
2023/06/12 08:33:40;;;;;;;7.53;6.35;;;;;;;34.55;23.56;101408.41;4986185;28;20042;-85
2023/06/12 08:36:06;;;;;;;9.93;6.28;;;;;;;34.48;24.72;101412.00;4990165;28;20481;-85
2023/06/12 08:38:34;;;;;;;24.17;7.07;;;;;;;35.13;23.17;101417.06;4992823;28;20034;-85
2023/06/12 08:41:02;;;;;;;10.52;6.35;;;;;;;35.68;22.77;101410.31;4989162;28;20027;-84
2023/06/12 08:43:32;;;;;;;11.15;6.45;;;;;;;35.30;22.87;101404.56;4996343;28;20496;-82
2023/06/12 08:46:02;;;;;;;15.15;6.72;;;;;;;34.62;23.59;101410.13;4988069;28;20044;-82
2023/06/12 08:48:28;;;;;;;8.18;6.13;;;;;;;34.58;23.76;101406.09;4982579;28;20044;-81
2023/06/12 08:50:54;;;;;;;6.65;5.97;;;;;;;34.59;24.21;101404.22;4989237;28;20872;-82
2023/06/12 08:53:20;;;;;;;8.65;5.50;;;;;;;34.92;23.41;101407.03;4991164;28;20040;-82
2023/06/12 08:55:46;;;;;;;7.10;5.80;;;;;;;35.31;22.38;101409.03;4986615;28;20049;-82
2023/06/12 08:58:11;;;;;;;11.02;6.15;;;;;;;35.07;23.81;101410.50;4967118;28;20026;-82
2023/06/12 09:00:37;;;;;;;7.65;5.93;;;;;;;34.86;23.54;101410.63;4987435;28;20080;-82
2023/06/12 09:03:06;;;;;;;8.93;5.85;;;;;;;34.60;24.23;101401.28;4986727;28;20030;-82
2023/06/12 09:05:37;;;;;;;9.15;5.93;;;;;;;34.59;23.74;101401.47;4982737;28;20053;-83
2023/06/12 09:08:04;;;;;;;9.25;6.22;;;;;;;34.38;23.32;101396.94;4982202;28;20030;-82
2023/06/12 09:10:33;;;;;;;12.75;6.70;;;;;;;34.15;25.46;101391.75;4986779;28;20033;-83
2023/06/12 09:12:59;;;;;;;7.72;5.75;;;;;;;33.79;25.24;101391.94;4984530;28;20124;-83
2023/06/12 09:15:25;;;;;;;6.80;6.10;;;;;;;33.65;25.64;101391.84;4981687;28;20092;-83
2023/06/12 09:17:55;;;;;;;9.05;5.95;;;;;;;33.84;25.99;101393.00;4984726;28;20058;-83
2023/06/12 09:20:27;;;;;;;8.18;5.68;;;;;;;34.31;24.66;101390.53;4987510;28;20034;-83
2023/06/12 09:22:53;;;;;;;11.80;5.68;;;;;;;34.10;25.57;101391.53;4984814;28;20030;-83
2023/06/12 09:25:19;;;;;;;9.75;6.20;;;;;;;34.00;25.81;101381.75;4981855;28;20030;-83
2023/06/12 09:27:46;;;;;;;6.72;5.95;;;;;;;33.88;25.13;101377.84;4968080;28;20062;-83
2023/06/12 09:30:12;;;;;;;6.30;5.70;;;;;;;34.10;24.10;101383.28;4984892;28;20037;-87
2023/06/12 09:32:40;;;;;;;6.10;5.50;;;;;;;34.53;23.60;101378.41;4981624;28;20030;-83
2023/06/12 09:35:06;;;;;;;7.70;5.80;;;;;;;34.98;23.29;101382.38;4981767;28;20473;-83
2023/06/12 09:37:31;;;;;;;11.52;5.97;;;;;;;35.14;23.07;101383.84;4962277;28;20034;-82
2023/06/12 09:40:11;;;;;;;6.35;5.43;;;;;;;35.52;23.79;101391.47;4979455;28;20557;-81
2023/06/12 09:42:40;;;;;;;8.13;6.05;;;;;;;35.10;22.81;101396.31;4982599;28;20084;-81
2023/06/12 09:45:15;;;;;;;8.65;6.85;;;;;;;35.17;22.82;101388.09;4983923;28;20030;-82
2023/06/12 09:47:46;;;;;;;8.93;5.95;;;;;;;35.50;22.38;101380.72;4979361;28;20137;-82
2023/06/12 09:50:13;;;;;;;8.10;6.03;;;;;;;35.48;22.59;101388.31;4981570;28;20088;-82
2023/06/12 09:52:43;;;;;;;6.13;5.53;;;;;;;35.51;21.70;101384.28;4982963;28;20999;-81
2023/06/12 09:55:17;;;;;;;6.20;5.57;;;;;;;35.19;23.05;101383.22;4979228;28;20069;-81
2023/06/12 09:57:48;;;;;;;9.32;5.93;;;;;;;34.93;22.57;101384.88;4978461;28;20120;-82
2023/06/12 10:00:16;;;;;;;6.38;5.80;;;;;;;34.93;22.26;101384.88;4980545;28;20440;-82
2023/06/12 10:02:48;;;;;;;6.45;5.95;;;;;;;35.03;22.48;101384.47;4985589;28;20033;-82
2023/06/12 10:05:25;;;;;;;6.60;5.78;;;;;;;35.35;22.53;101390.19;4964954;28;20043;-81
2023/06/12 10:07:54;;;;;;;7.82;6.05;;;;;;;35.68;21.86;101381.97;4985951;28;20057;-82
2023/06/12 10:10:21;;;;;;;6.18;5.38;;;;;;;35.95;22.22;101386.34;4985771;28;20077;-81
2023/06/12 10:12:47;;;;;;;6.68;5.78;;;;;;;36.12;22.20;101383.13;4983555;28;20034;-81
2023/06/12 10:15:13;;;;;;;5.93;5.32;;;;;;;36.25;21.78;101377.59;4983080;28;20036;-81
2023/06/12 10:17:42;;;;;;;7.68;5.63;;;;;;;36.32;22.01;101383.88;4984241;28;20092;-81
2023/06/12 10:20:12;;;;;;;9.35;5.93;;;;;;;36.16;21.30;101368.72;4988660;28;20046;-81
2023/06/12 10:22:38;;;;;;;10.00;5.47;;;;;;;35.79;21.71;101378.53;4989295;28;20544;-81
2023/06/12 10:25:06;;;;;;;9.15;5.80;;;;;;;36.01;22.00;101371.75;4985794;28;20034;-81
2023/06/12 10:27:32;;;;;;;9.30;5.75;;;;;;;35.95;22.09;101375.34;4990866;28;20030;-81
2023/06/12 10:29:59;;;;;;;10.20;5.78;;;;;;;35.77;22.13;101366.91;4984761;28;20040;-81
2023/06/12 10:32:29;;;;;;;6.15;5.55;;;;;;;35.61;22.21;101370.09;4984426;28;20100;-82
2023/06/12 10:34:54;;;;;;;5.97;5.40;;;;;;;35.58;21.07;101371.41;4984374;28;20058;-80
2023/06/12 10:37:37;;;;;;;8.20;6.03;;;;;;;35.76;22.34;101371.53;4987370;28;20496;-82
2023/06/12 10:40:10;;;;;;;6.40;5.80;;;;;;;36.03;22.04;101364.09;4985786;28;20049;-81
2023/06/12 10:42:47;;;;;;;6.80;5.50;;;;;;;35.91;21.96;101367.72;4985572;28;20536;-80
2023/06/12 10:45:17;;;;;;;7.97;5.40;;;;;;;36.16;20.99;101352.19;4984850;28;20492;-81
2023/06/12 10:47:58;;;;;;;9.50;5.70;;;;;;;36.49;21.63;101362.25;4988282;28;20030;-81
2023/06/12 10:50:25;;;;;;;6.47;5.68;;;;;;;36.15;22.38;101350.50;4987302;28;20049;-81
2023/06/12 10:52:55;;;;;;;7.28;5.88;;;;;;;36.39;21.43;101356.34;4990194;28;20053;-81
2023/06/12 10:55:22;;;;;;;6.80;5.85;;;;;;;36.59;20.84;101351.56;4987651;28;20046;-81
2023/06/12 10:57:51;;;;;;;8.18;6.20;;;;;;;36.76;20.90;101350.00;4986236;28;20029;-81
2023/06/12 11:00:18;;;;;;;6.28;5.70;;;;;;;37.14;20.78;101348.25;4984629;28;20552;-81
2023/06/12 11:02:46;;;;;;;6.22;5.63;;;;;;;37.52;19.79;101354.50;4990405;28;20385;-81
2023/06/12 11:05:11;;;;;;;7.53;5.85;;;;;;;37.27;20.37;101346.22;4988420;28;20104;-82
2023/06/12 11:07:39;;;;;;;8.45;5.82;;;;;;;37.32;20.31;101345.53;4985940;28;20042;-81
2023/06/12 11:10:11;;;;;;;6.35;5.65;;;;;;;37.86;19.93;101343.97;4985716;28;20018;-82
2023/06/12 11:12:45;;;;;;;7.85;5.90;;;;;;;38.31;19.20;101351.09;4984952;28;20062;-81
2023/06/12 11:15:11;;;;;;;6.70;6.03;;;;;;;38.48;19.23;101343.84;4989446;28;20473;-81
2023/06/12 11:17:36;;;;;;;6.70;5.97;;;;;;;38.60;18.80;101339.19;4985337;28;20027;-82
2023/06/12 11:20:01;;;;;;;7.23;6.07;;;;;;;38.73;17.59;101335.38;4990324;28;20324;-82
2023/06/12 11:22:27;;;;;;;8.85;5.70;;;;;;;38.73;18.74;101341.75;4986392;28;20029;-81